Time;durP1;ratioP1;P1;durP2;ratioP2;P2;SDS_P1;SDS_P2;PMS_P1;PMS_P2;Temp;Humidity;BMP_temperature;BMP_pressure;BME280_temperature;BME280_humidity;BME280_pressure;Samples;Min_cycle;Max_cycle;Signal;HPM_P1;HPM_P2
2022/09/01 00:00:51;;;;;;;11.40;9.80;;;16.80;99.90;;;;;;5032262;28;20435;-66
2022/09/01 00:03:22;;;;;;;10.80;9.80;;;16.70;99.90;;;;;;5032097;28;20437;-70
2022/09/01 00:05:53;;;;;;;11.40;10.23;;;16.70;99.90;;;;;;5032395;28;20485;-65
2022/09/01 00:08:21;;;;;;;11.50;9.83;;;16.70;99.90;;;;;;5032940;28;20937;-65
2022/09/01 00:10:48;;;;;;;13.83;10.57;;;16.60;99.90;;;;;;5032244;28;20528;-65
2022/09/01 00:13:15;;;;;;;11.60;10.40;;;16.60;99.90;;;;;;5032868;28;20501;-65
2022/09/01 00:15:44;;;;;;;11.63;10.43;;;16.50;99.90;;;;;;5032252;28;20519;-65
2022/09/01 00:18:12;;;;;;;12.20;10.07;;;16.50;99.90;;;;;;5032702;28;20469;-65
2022/09/01 00:20:39;;;;;;;13.03;10.10;;;16.50;99.90;;;;;;5031961;28;20516;-65
2022/09/01 00:23:06;;;;;;;11.53;10.33;;;16.40;99.90;;;;;;5032828;28;20444;-65
2022/09/01 00:25:34;;;;;;;12.27;10.67;;;16.40;99.90;;;;;;5032271;28;20583;-65
2022/09/01 00:28:03;;;;;;;13.80;11.20;;;16.40;99.90;;;;;;5032711;28;20536;-66
2022/09/01 00:30:31;;;;;;;11.77;10.33;;;16.30;99.90;;;;;;5031963;28;20434;-66
2022/09/01 00:32:59;;;;;;;13.80;11.00;;;16.30;99.90;;;;;;5032536;28;20483;-65
2022/09/01 00:35:26;;;;;;;12.90;11.60;;;16.30;99.90;;;;;;5032123;28;20441;-65
2022/09/01 00:37:53;;;;;;;12.57;10.93;;;16.30;99.90;;;;;;5032455;28;20446;-65
2022/09/01 00:40:21;;;;;;;9.10;8.03;;;16.30;99.90;;;;;;5031636;28;20442;-65
2022/09/01 00:42:49;;;;;;;9.50;7.27;;;16.20;99.90;;;;;;5032401;28;20446;-66
2022/09/01 00:45:16;;;;;;;9.50;7.87;;;16.20;99.90;;;;;;5031917;28;20915;-65
2022/09/01 00:47:43;;;;;;;10.87;9.77;;;16.20;99.90;;;;;;5032033;28;20523;-66
2022/09/01 00:50:14;;;;;;;11.77;10.53;;;16.20;99.90;;;;;;5031729;28;20440;-65
2022/09/01 00:52:45;;;;;;;11.03;9.90;;;16.20;99.90;;;;;;5032434;28;20811;-65
2022/09/01 00:55:17;;;;;;;11.90;10.57;;;16.10;99.90;;;;;;5031887;28;20438;-65
2022/09/01 00:57:45;;;;;;;12.10;10.80;;;16.10;99.90;;;;;;5032290;28;20437;-66
2022/09/01 01:00:17;;;;;;;12.23;10.17;;;16.00;99.90;;;;;;5031065;28;20444;-66
2022/09/01 01:02:45;;;;;;;12.20;10.27;;;16.00;99.90;;;;;;5032154;28;20792;-65
2022/09/01 01:05:15;;;;;;;14.90;11.20;;;16.10;99.90;;;;;;5031228;28;20481;-66
2022/09/01 01:07:45;;;;;;;15.30;13.10;;;16.10;99.90;;;;;;5031938;28;20496;-65
2022/09/01 01:10:14;;;;;;;14.67;11.67;;;16.10;99.90;;;;;;5031724;28;20821;-65
2022/09/01 01:12:42;;;;;;;14.40;12.93;;;16.10;99.90;;;;;;5032055;28;20520;-65
2022/09/01 01:15:12;;;;;;;14.70;12.43;;;16.10;99.90;;;;;;5032831;28;21210;-65
2022/09/01 01:17:39;;;;;;;13.60;12.03;;;16.10;99.90;;;;;;5036138;28;20448;-65
2022/09/01 01:23:04;;;;;;;11.50;9.83;;;16.30;99.90;;;;;;5035645;28;20436;-65
2022/09/01 01:25:35;;;;;;;14.07;10.87;;;16.30;99.90;;;;;;5036111;28;20568;-66
2022/09/01 01:28:10;;;;;;;12.53;11.27;;;16.30;99.90;;;;;;5035795;28;20448;-65
2022/09/01 01:30:38;;;;;;;12.23;11.03;;;16.30;99.90;;;;;;5036200;28;20436;-65
2022/09/01 01:33:06;;;;;;;16.27;11.40;;;16.30;99.90;;;;;;5035410;28;20948;-71
2022/09/01 01:35:34;;;;;;;13.63;12.23;;;16.20;99.90;;;;;;5035272;28;20441;-65
2022/09/01 01:38:06;;;;;;;13.60;12.30;;;16.30;99.90;;;;;;5035940;28;20452;-65
2022/09/01 01:40:36;;;;;;;13.10;11.63;;;16.30;99.90;;;;;;5035236;28;20444;-65
2022/09/01 01:43:04;;;;;;;10.93;9.83;;;16.40;99.90;;;;;;5035923;28;20506;-65
2022/09/01 01:45:31;;;;;;;13.37;11.97;;;16.40;99.90;;;;;;5035344;28;20492;-65
2022/09/01 01:48:07;;;;;;;13.67;11.43;;;16.50;99.90;;;;;;5035317;28;20462;-65
2022/09/01 01:50:36;;;;;;;15.40;12.80;;;16.50;99.90;;;;;;5034890;28;20437;-65
2022/09/01 01:53:06;;;;;;;14.70;10.90;;;16.50;99.90;;;;;;5035546;28;20433;-65
2022/09/01 01:55:35;;;;;;;12.00;10.70;;;16.50;99.90;;;;;;5035431;28;20801;-65
2022/09/01 01:58:03;;;;;;;12.77;11.37;;;16.50;99.90;;;;;;5035014;28;20844;-65
2022/09/01 02:00:34;;;;;;;13.00;11.20;;;16.50;99.90;;;;;;5035311;28;20445;-65
2022/09/01 02:03:01;;;;;;;12.50;11.20;;;16.50;99.90;;;;;;5035112;28;20483;-65
2022/09/01 02:05:35;;;;;;;12.77;11.47;;;16.60;99.90;;;;;;5034423;28;20485;-65
2022/09/01 02:08:05;;;;;;;12.20;10.40;;;16.50;99.90;;;;;;5034914;28;20442;-65
2022/09/01 02:10:36;;;;;;;11.90;10.60;;;16.50;99.90;;;;;;5035255;28;20932;-70
2022/09/01 02:13:06;;;;;;;15.17;12.70;;;16.50;99.90;;;;;;5034708;28;20465;-65
2022/09/01 02:15:37;;;;;;;15.17;11.73;;;16.40;99.90;;;;;;5035224;28;21087;-65
2022/09/01 02:18:05;;;;;;;14.00;12.30;;;16.40;99.90;;;;;;5034732;28;20940;-65
2022/09/01 02:20:32;;;;;;;14.97;12.83;;;16.30;99.90;;;;;;5035147;28;20448;-65
2022/09/01 02:23:03;;;;;;;11.93;10.67;;;16.30;99.90;;;;;;5034210;28;20434;-65
2022/09/01 02:25:30;;;;;;;14.10;10.80;;;16.20;99.90;;;;;;5034736;28;20837;-65
2022/09/01 02:28:01;;;;;;;11.33;10.07;;;16.10;99.90;;;;;;5033715;28;20444;-65
2022/09/01 02:30:31;;;;;;;12.00;10.67;;;16.10;99.90;;;;;;5032269;28;20544;-65
2022/09/01 02:32:58;;;;;;;12.50;10.77;;;16.10;99.90;;;;;;5034711;28;20434;-65
2022/09/01 02:35:27;;;;;;;12.33;10.77;;;16.10;99.90;;;;;;5033411;28;20438;-65
2022/09/01 02:37:59;;;;;;;11.80;10.37;;;16.10;99.90;;;;;;5028408;28;20948;-65
2022/09/01 02:40:29;;;;;;;11.50;9.87;;;16.10;99.90;;;;;;5034652;28;20446;-65
2022/09/01 02:42:59;;;;;;;11.20;9.53;;;16.10;99.90;;;;;;5033837;28;20429;-65
2022/09/01 02:45:28;;;;;;;11.60;9.90;;;16.10;99.90;;;;;;5034324;28;20489;-65
2022/09/01 02:47:56;;;;;;;13.43;10.77;;;16.10;99.90;;;;;;5033725;28;21018;-67
2022/09/01 02:50:23;;;;;;;10.90;9.80;;;16.20;99.90;;;;;;5014735;28;20493;-65
2022/09/01 02:52:53;;;;;;;10.07;9.00;;;16.10;99.90;;;;;;5020365;28;20440;-65
2022/09/01 02:55:21;;;;;;;12.17;10.83;;;16.10;99.90;;;;;;5034630;28;20824;-65
2022/09/01 02:57:51;;;;;;;13.50;12.10;;;16.10;99.90;;;;;;5033363;28;20986;-65
2022/09/01 03:00:27;;;;;;;12.13;10.83;;;16.10;99.90;;;;;;5033979;28;20440;-65
2022/09/01 03:02:57;;;;;;;13.20;9.73;;;16.10;99.90;;;;;;5033554;28;20961;-65
2022/09/01 03:05:33;;;;;;;12.30;11.10;;;16.10;99.90;;;;;;5034123;28;20597;-65
2022/09/01 03:08:06;;;;;;;14.27;11.50;;;16.00;99.90;;;;;;5033659;28;20437;-65
2022/09/01 03:10:35;;;;;;;13.13;11.83;;;16.00;99.90;;;;;;5034218;28;20940;-65
2022/09/01 03:13:05;;;;;;;10.90;9.73;;;16.00;99.90;;;;;;5033860;28;20456;-65
2022/09/01 03:15:36;;;;;;;14.73;11.17;;;16.10;99.90;;;;;;5034118;28;20445;-65
2022/09/01 03:18:05;;;;;;;17.53;11.40;;;16.00;99.90;;;;;;5033392;28;20789;-65
2022/09/01 03:20:34;;;;;;;13.83;11.47;;;16.00;99.90;;;;;;5034396;28;20453;-65
2022/09/01 03:23:03;;;;;;;13.80;11.60;;;15.90;99.90;;;;;;5033344;28;21063;-65
2022/09/01 03:25:32;;;;;;;15.50;13.20;;;16.00;99.90;;;;;;5033832;28;20486;-65
2022/09/01 03:28:02;;;;;;;14.10;12.60;;;16.00;99.90;;;;;;5033517;28;20440;-65
2022/09/01 03:30:30;;;;;;;14.53;12.83;;;16.00;99.90;;;;;;5033726;28;20499;-65
2022/09/01 03:32:59;;;;;;;15.63;13.20;;;16.00;99.90;;;;;;5032993;28;20499;-65
2022/09/01 03:35:27;;;;;;;14.50;13.00;;;16.00;99.90;;;;;;5033535;28;20813;-66
2022/09/01 03:37:57;;;;;;;14.07;10.40;;;16.00;99.90;;;;;;5032373;28;20437;-65
2022/09/01 03:40:28;;;;;;;13.33;9.33;;;15.90;99.90;;;;;;5033496;28;20453;-66
2022/09/01 03:42:56;;;;;;;11.70;10.50;;;15.90;99.90;;;;;;5033012;28;20444;-65
2022/09/01 03:45:24;;;;;;;13.00;11.70;;;16.00;99.90;;;;;;5033454;28;20469;-65
2022/09/01 03:47:53;;;;;;;13.07;9.40;;;16.00;99.90;;;;;;5032479;28;20478;-65
2022/09/01 03:50:26;;;;;;;12.17;10.83;;;16.00;99.90;;;;;;5033469;28;20496;-65
2022/09/01 03:52:57;;;;;;;13.50;11.33;;;16.00;99.90;;;;;;5032338;28;21022;-65
2022/09/01 03:55:28;;;;;;;14.53;12.43;;;16.00;99.90;;;;;;5032965;28;20454;-65
2022/09/01 03:57:57;;;;;;;12.83;10.93;;;16.00;99.90;;;;;;5032897;28;20449;-65
2022/09/01 04:00:28;;;;;;;13.63;12.20;;;16.00;99.90;;;;;;5033106;28;20511;-65
2022/09/01 04:02:58;;;;;;;14.70;12.20;;;15.90;99.90;;;;;;5032633;28;20537;-65
2022/09/01 04:05:28;;;;;;;13.37;12.00;;;15.90;99.90;;;;;;5032901;28;20493;-65
2022/09/01 04:07:57;;;;;;;18.60;12.87;;;15.90;99.90;;;;;;5032960;28;20454;-69
2022/09/01 04:10:25;;;;;;;15.50;13.23;;;15.80;99.90;;;;;;5013448;28;20907;-66
2022/09/01 04:12:57;;;;;;;14.60;12.87;;;15.70;99.90;;;;;;5013589;28;20442;-65
2022/09/01 04:15:26;;;;;;;16.57;13.90;;;15.70;99.90;;;;;;5032710;28;20532;-65
2022/09/01 04:18:08;;;;;;;14.13;12.63;;;15.60;99.90;;;;;;5032864;28;20442;-65
2022/09/01 04:20:47;;;;;;;14.70;12.17;;;15.60;99.90;;;;;;5013329;28;20837;-65
2022/09/01 04:23:25;;;;;;;13.70;12.30;;;15.60;99.90;;;;;;5014320;28;20434;-65
2022/09/01 04:25:55;;;;;;;14.53;12.27;;;15.50;99.90;;;;;;5032803;28;20508;-65
2022/09/01 04:28:23;;;;;;;14.60;12.93;;;15.50;99.90;;;;;;5032444;28;21015;-65
2022/09/01 04:30:54;;;;;;;14.83;13.33;;;15.40;99.90;;;;;;5032677;28;20438;-65
2022/09/01 04:33:26;;;;;;;15.67;14.03;;;15.30;99.90;;;;;;5032177;28;20936;-68
2022/09/01 04:35:55;;;;;;;14.77;12.07;;;15.30;99.90;;;;;;5013265;28;20525;-65
2022/09/01 04:38:24;;;;;;;14.80;13.17;;;15.30;99.90;;;;;;5027418;28;20443;-66
2022/09/01 04:40:52;;;;;;;14.07;12.60;;;15.20;99.90;;;;;;5032643;28;20446;-65
2022/09/01 04:43:19;;;;;;;15.33;13.00;;;15.20;99.90;;;;;;5032222;28;20443;-65
2022/09/01 04:45:50;;;;;;;15.43;13.40;;;15.20;99.90;;;;;;5032576;28;20503;-65
2022/09/01 04:48:20;;;;;;;14.57;13.07;;;15.10;99.90;;;;;;5032276;28;20499;-65
2022/09/01 04:50:50;;;;;;;15.27;13.70;;;15.10;99.90;;;;;;5031521;28;20437;-65
2022/09/01 04:53:19;;;;;;;16.97;13.00;;;15.10;99.90;;;;;;5032281;28;20438;-65
2022/09/01 04:55:47;;;;;;;12.17;10.97;;;15.10;99.90;;;;;;5032411;28;20450;-65
2022/09/01 04:58:19;;;;;;;10.50;7.43;;;15.10;99.90;;;;;;5031534;28;20438;-65
2022/09/01 05:00:50;;;;;;;9.30;8.13;;;15.00;99.90;;;;;;5032481;28;20448;-65
2022/09/01 05:03:20;;;;;;;11.53;9.30;;;15.00;99.90;;;;;;5031853;28;20438;-65
2022/09/01 05:05:47;;;;;;;12.87;11.50;;;14.90;99.90;;;;;;5031109;28;20511;-65
2022/09/01 05:08:19;;;;;;;13.03;11.10;;;14.90;99.90;;;;;;5032418;28;20434;-65
2022/09/01 05:10:51;;;;;;;15.30;13.13;;;15.00;99.90;;;;;;5032121;28;20438;-65
2022/09/01 05:13:22;;;;;;;16.50;13.47;;;15.00;99.90;;;;;;5024954;28;20438;-66
2022/09/01 05:16:00;;;;;;;15.40;13.80;;;15.00;99.90;;;;;;5028512;28;20504;-65
2022/09/01 05:18:27;;;;;;;15.73;13.20;;;15.00;99.90;;;;;;5021402;28;20438;-66
2022/09/01 05:20:56;;;;;;;14.30;11.80;;;15.00;99.90;;;;;;5025833;28;20504;-65
2022/09/01 05:23:25;;;;;;;15.07;13.47;;;15.00;99.90;;;;;;5026382;28;20531;-65
2022/09/01 05:25:55;;;;;;;17.70;14.70;;;15.10;99.90;;;;;;5027498;28;20837;-67
2022/09/01 05:28:25;;;;;;;15.87;14.30;;;15.10;99.90;;;;;;5028708;28;21204;-66
2022/09/01 05:30:54;;;;;;;16.40;14.70;;;15.10;99.90;;;;;;5029527;28;20444;-70
2022/09/01 05:33:22;;;;;;;15.03;13.30;;;15.20;99.90;;;;;;5029172;28;20441;-65
2022/09/01 05:35:54;;;;;;;24.20;14.50;;;15.30;99.90;;;;;;5028962;28;20513;-65
2022/09/01 05:38:23;;;;;;;18.10;15.40;;;15.30;99.90;;;;;;5028078;28;20434;-67
2022/09/01 05:41:00;;;;;;;16.60;14.90;;;15.40;99.90;;;;;;5028018;28;20847;-65
2022/09/01 05:43:29;;;;;;;17.70;15.83;;;15.50;99.90;;;;;;5029485;28;20806;-65
2022/09/01 05:45:59;;;;;;;18.80;16.80;;;15.60;99.90;;;;;;5028517;28;20529;-66
2022/09/01 05:48:30;;;;;;;15.43;13.83;;;15.70;99.90;;;;;;5031031;28;21016;-65
2022/09/01 05:50:58;;;;;;;14.57;13.07;;;15.80;99.90;;;;;;5029512;28;20928;-66
2022/09/01 05:53:30;;;;;;;14.27;12.77;;;15.90;99.90;;;;;;5029680;28;20448;-66
2022/09/01 05:55:58;;;;;;;14.17;11.43;;;16.00;99.90;;;;;;5028993;28;20521;-66
2022/09/01 05:58:28;;;;;;;12.33;11.13;;;16.10;99.90;;;;;;5030022;28;20449;-65
2022/09/01 06:00:58;;;;;;;13.50;12.10;;;16.30;99.90;;;;;;5029190;28;20442;-67
2022/09/01 06:03:25;;;;;;;12.10;10.30;;;16.40;99.90;;;;;;5033590;28;20437;-65
2022/09/01 06:05:54;;;;;;;14.10;11.47;;;16.60;99.90;;;;;;5033686;28;20491;-65
2022/09/01 06:08:23;;;;;;;11.27;9.30;;;16.80;99.90;;;;;;5032931;28;20465;-66
2022/09/01 06:10:51;;;;;;;11.23;9.67;;;16.90;99.90;;;;;;5029833;28;20866;-65
2022/09/01 06:13:20;;;;;;;10.80;9.70;;;17.00;99.90;;;;;;5032929;28;20446;-65
2022/09/01 06:15:49;;;;;;;9.30;8.40;;;17.20;99.90;;;;;;5034147;28;20445;-65
2022/09/01 06:18:17;;;;;;;8.60;7.80;;;17.30;99.90;;;;;;5026743;28;20474;-67
2022/09/01 06:20:49;;;;;;;9.17;8.27;;;17.40;99.90;;;;;;5032374;28;20528;-65
2022/09/01 06:23:17;;;;;;;9.17;8.17;;;17.40;99.90;;;;;;5029842;28;20446;-65
2022/09/01 06:25:45;;;;;;;10.30;9.30;;;17.50;99.90;;;;;;5031477;28;20451;-65
2022/09/01 06:28:13;;;;;;;8.90;8.00;;;17.60;99.10;;;;;;5031521;28;20516;-67
2022/09/01 06:30:43;;;;;;;10.70;9.60;;;17.60;98.70;;;;;;5030800;28;20914;-67
2022/09/01 06:33:12;;;;;;;9.97;9.00;;;17.70;99.50;;;;;;5030898;28;20434;-65
2022/09/01 06:35:40;;;;;;;10.20;9.10;;;17.80;99.60;;;;;;5029941;28;20447;-66
2022/09/01 06:38:08;;;;;;;10.50;9.40;;;17.90;99.70;;;;;;5026753;28;20937;-67
2022/09/01 06:40:40;;;;;;;9.13;8.23;;;18.00;98.10;;;;;;5030888;28;21029;-66
2022/09/01 06:43:08;;;;;;;8.90;7.53;;;18.00;98.60;;;;;;5031664;28;20855;-66
2022/09/01 06:45:41;;;;;;;9.80;8.07;;;18.10;98.60;;;;;;5030733;28;21122;-66
2022/09/01 06:48:14;;;;;;;9.93;8.23;;;18.20;98.50;;;;;;5030776;28;20969;-67
2022/09/01 06:50:42;;;;;;;8.70;7.90;;;18.30;97.80;;;;;;5029512;28;20438;-65
2022/09/01 06:53:10;;;;;;;8.23;7.30;;;18.40;98.00;;;;;;5027869;28;20523;-67
2022/09/01 06:55:40;;;;;;;8.40;7.50;;;18.40;97.00;;;;;;5029427;28;20496;-67
2022/09/01 06:58:12;;;;;;;7.93;7.13;;;18.60;97.60;;;;;;5031731;28;20812;-65
2022/09/01 07:00:41;;;;;;;7.63;6.00;;;18.70;97.30;;;;;;5032213;28;20672;-66
2022/09/01 07:03:10;;;;;;;8.53;6.17;;;18.90;95.70;;;;;;5032973;28;20512;-65
2022/09/01 07:05:39;;;;;;;9.80;7.13;;;18.90;95.10;;;;;;5029156;28;20938;-66
2022/09/01 07:08:09;;;;;;;8.33;6.77;;;19.10;94.60;;;;;;5032667;28;20516;-67
2022/09/01 07:10:44;;;;;;;8.23;7.40;;;19.20;94.80;;;;;;5032669;28;20445;-66
2022/09/01 07:13:16;;;;;;;7.10;6.20;;;19.40;94.20;;;;;;5032739;28;20517;-65
2022/09/01 07:15:43;;;;;;;6.10;5.50;;;19.40;93.40;;;;;;5029940;28;20449;-65
2022/09/01 07:18:13;;;;;;;9.83;6.33;;;19.60;93.20;;;;;;5032671;28;20807;-66
2022/09/01 07:20:41;;;;;;;7.90;6.20;;;19.80;92.70;;;;;;5033049;28;20447;-66
2022/09/01 07:23:10;;;;;;;7.27;5.10;;;19.90;91.50;;;;;;5032704;28;20473;-66
2022/09/01 07:25:40;;;;;;;6.20;5.53;;;20.10;90.70;;;;;;5028487;28;20445;-67
2022/09/01 07:28:07;;;;;;;9.23;5.50;;;20.40;90.80;;;;;;5032875;28;20489;-68
2022/09/01 07:30:34;;;;;;;6.17;5.13;;;20.70;88.70;;;;;;5032434;28;20437;-65
2022/09/01 07:33:01;;;;;;;6.30;4.77;;;21.10;90.30;;;;;;5032438;28;20444;-65
2022/09/01 07:35:36;;;;;;;6.20;4.67;;;21.80;92.10;;;;;;5031799;28;20937;-65
2022/09/01 07:38:08;;;;;;;5.90;4.50;;;22.50;86.60;;;;;;5032186;28;20948;-65
2022/09/01 07:40:37;;;;;;;7.53;4.50;;;23.40;82.70;;;;;;5032214;28;20446;-66
2022/09/01 07:43:07;;;;;;;5.73;5.17;;;24.10;74.20;;;;;;5032259;28;20488;-65
2022/09/01 07:45:36;;;;;;;8.03;5.40;;;24.00;68.90;;;;;;5031711;28;20932;-66
2022/09/01 07:48:05;;;;;;;6.13;4.40;;;23.50;69.90;;;;;;5031716;28;20497;-65
2022/09/01 07:50:36;;;;;;;4.73;4.33;;;23.20;72.00;;;;;;5032162;28;20859;-65
2022/09/01 07:53:03;;;;;;;7.53;4.00;;;23.00;69.90;;;;;;5031961;28;20499;-65
2022/09/01 07:55:30;;;;;;;4.47;4.00;;;22.90;73.30;;;;;;5031288;28;20442;-65
2022/09/01 07:57:58;;;;;;;5.30;4.63;;;23.10;73.10;;;;;;5031711;28;20453;-65
2022/09/01 08:00:27;;;;;;;5.27;4.30;;;23.80;75.10;;;;;;5031733;28;20442;-65
2022/09/01 08:02:54;;;;;;;4.80;4.30;;;26.10;72.20;;;;;;5031318;28;20940;-65
2022/09/01 08:05:25;;;;;;;4.50;3.83;;;28.00;62.30;;;;;;5031248;28;20527;-66
2022/09/01 08:07:54;;;;;;;4.30;3.80;;;29.60;58.50;;;;;;5031533;28;21003;-66
2022/09/01 08:10:22;;;;;;;4.90;4.20;;;31.40;52.50;;;;;;5031455;28;20474;-66
2022/09/01 08:12:50;;;;;;;4.63;3.83;;;32.00;49.60;;;;;;5031559;28;20441;-66
2022/09/01 08:15:17;;;;;;;4.50;3.63;;;31.60;46.20;;;;;;5031159;28;20846;-66
2022/09/01 08:17:45;;;;;;;5.13;4.20;;;31.70;46.90;;;;;;5031641;28;20446;-65
2022/09/01 08:20:13;;;;;;;4.30;3.90;;;32.60;46.10;;;;;;5031665;28;20485;-65
2022/09/01 08:22:39;;;;;;;5.60;4.00;;;33.30;43.30;;;;;;5031309;28;20433;-66
2022/09/01 08:25:09;;;;;;;4.30;3.67;;;33.70;42.20;;;;;;5030351;28;20521;-66
2022/09/01 08:27:38;;;;;;;5.93;3.50;;;34.00;40.50;;;;;;5031366;28;20536;-66
2022/09/01 08:30:08;;;;;;;5.00;3.93;;;34.40;40.60;;;;;;5031499;28;20456;-65
2022/09/01 08:32:35;;;;;;;4.37;3.97;;;34.60;39.20;;;;;;5031459;28;21464;-66
2022/09/01 08:35:03;;;;;;;7.40;3.60;;;35.70;38.10;;;;;;5031059;28;20470;-66
2022/09/01 08:37:31;;;;;;;3.37;2.90;;;37.20;35.10;;;;;;5031241;28;20442;-66
2022/09/01 08:39:58;;;;;;;3.90;3.47;;;38.40;35.60;;;;;;5029507;28;20928;-68
2022/09/01 08:42:44;;;;;;;3.10;2.70;;;39.90;31.60;;;;;;5031077;28;20496;-68
2022/09/01 08:45:20;;;;;;;5.10;2.60;;;41.20;31.00;;;;;;5028978;28;20521;-66
2022/09/01 08:47:48;;;;;;;2.93;2.63;;;41.90;27.90;;;;;;5029355;28;20493;-66
2022/09/01 08:50:16;;;;;;;4.40;3.63;;;42.70;27.60;;;;;;5031182;28;20520;-67
2022/09/01 08:52:47;;;;;;;3.70;3.23;;;42.20;25.50;;;;;;5031343;28;20876;-66
2022/09/01 08:55:20;;;;;;;5.43;3.30;;;41.10;25.50;;;;;;5029024;28;20482;-66
2022/09/01 08:57:50;;;;;;;5.43;3.97;;;39.10;26.70;;;;;;5029356;28;20787;-66
2022/09/01 09:00:22;;;;;;;4.10;3.70;;;37.00;27.60;;;;;;5030755;28;20932;-67
2022/09/01 09:02:58;;;;;;;4.90;3.67;;;36.20;28.80;;;;;;5030652;28;20900;-66
2022/09/01 09:05:49;;;;;;;3.83;3.47;;;35.00;29.60;;;;;;5030582;28;20863;-66
2022/09/01 09:08:44;;;;;;;4.40;3.90;;;35.40;33.40;;;;;;5012860;28;20482;-66
2022/09/01 09:11:22;;;;;;;9.63;4.07;;;35.70;31.60;;;;;;5012995;28;20522;-67
2022/09/01 09:14:01;;;;;;;4.33;2.77;;;36.70;31.00;;;;;;5012857;28;20549;-65
2022/09/01 09:16:33;;;;;;;3.50;3.20;;;39.00;30.00;;;;;;5012834;28;20602;-66
2022/09/01 09:19:05;;;;;;;3.33;3.03;;;40.80;27.20;;;;;;5012884;28;20836;-65
2022/09/01 09:21:35;;;;;;;3.70;3.27;;;42.00;26.00;;;;;;5012859;28;20854;-66
2022/09/01 09:24:08;;;;;;;4.33;3.40;;;42.40;24.50;;;;;;5012668;28;20929;-66
2022/09/01 09:26:35;;;;;;;4.07;3.17;;;42.90;24.20;;;;;;5012788;28;20457;-66
2022/09/01 09:29:04;;;;;;;4.70;3.30;;;43.00;22.90;;;;;;5012730;28;20482;-66
2022/09/01 09:31:37;;;;;;;3.27;2.73;;;40.90;23.20;;;;;;5012686;28;20529;-65
2022/09/01 09:34:10;;;;;;;5.90;3.00;;;39.10;26.10;;;;;;5012525;28;20930;-65
2022/09/01 09:36:38;;;;;;;3.70;3.30;;;38.40;26.20;;;;;;5014079;28;20474;-66
2022/09/01 09:39:17;;;;;;;4.20;3.40;;;37.40;26.70;;;;;;5016551;28;20447;-65
2022/09/01 09:42:07;;;;;;;4.23;3.83;;;36.10;27.90;;;;;;5016378;28;20450;-66
2022/09/01 09:44:45;;;;;;;8.17;3.90;;;35.00;29.00;;;;;;5016393;28;20484;-65
2022/09/01 09:47:38;;;;;;;3.97;3.57;;;33.80;29.70;;;;;;5016057;28;20479;-65
2022/09/01 09:50:14;;;;;;;4.07;3.67;;;32.60;32.20;;;;;;5016236;28;20474;-65
2022/09/01 09:52:42;;;;;;;5.30;4.60;;;31.70;32.70;;;;;;5016342;28;20528;-66
2022/09/01 09:55:23;;;;;;;5.60;4.37;;;30.70;33.40;;;;;;5016056;28;20790;-65
2022/09/01 09:57:52;;;;;;;4.17;3.77;;;29.80;36.00;;;;;;5016145;28;20438;-65
2022/09/01 10:00:23;;;;;;;5.43;4.93;;;29.60;39.20;;;;;;5016132;28;20848;-65
2022/09/01 10:02:57;;;;;;;3.90;3.17;;;30.90;39.60;;;;;;5016075;28;20529;-65
2022/09/01 10:05:33;;;;;;;4.20;3.80;;;31.90;35.60;;;;;;5015946;28;20528;-65
2022/09/01 10:08:01;;;;;;;3.47;3.10;;;32.80;37.20;;;;;;5016082;28;20518;-65
2022/09/01 10:10:36;;;;;;;4.53;4.13;;;32.40;33.90;;;;;;5015731;28;20489;-65
2022/09/01 10:13:04;;;;;;;4.23;3.83;;;31.30;34.90;;;;;;5015872;28;20451;-65
2022/09/01 10:15:34;;;;;;;4.40;4.00;;;31.00;34.20;;;;;;5015957;28;20542;-65
2022/09/01 10:18:07;;;;;;;4.40;3.13;;;30.20;34.80;;;;;;5015673;28;20493;-65
2022/09/01 10:20:37;;;;;;;6.03;4.80;;;29.30;36.80;;;;;;5015660;28;20438;-65
2022/09/01 10:23:04;;;;;;;7.23;4.10;;;30.30;38.70;;;;;;5015826;28;20443;-65
2022/09/01 10:25:34;;;;;;;5.53;4.37;;;33.80;35.80;;;;;;5015435;28;20794;-65
2022/09/01 10:28:09;;;;;;;4.97;3.93;;;37.20;31.80;;;;;;5015567;28;20479;-65
2022/09/01 10:30:42;;;;;;;4.87;4.03;;;39.80;27.40;;;;;;5015479;28;20446;-66
2022/09/01 10:33:10;;;;;;;3.70;3.30;;;41.80;26.30;;;;;;5015428;28;20474;-66
2022/09/01 10:35:43;;;;;;;7.30;3.70;;;43.20;24.20;;;;;;5015580;28;20775;-66
2022/09/01 10:38:16;;;;;;;3.80;3.40;;;44.10;23.60;;;;;;5015345;28;20478;-66
2022/09/01 10:40:47;;;;;;;4.10;3.10;;;44.80;23.00;;;;;;5015362;28;20435;-66
2022/09/01 10:43:41;;;;;;;3.97;2.90;;;45.00;22.00;;;;;;5015309;28;20439;-66
2022/09/01 10:46:46;;;;;;;4.73;3.80;;;44.00;21.80;;;;;;5014979;28;20486;-66
2022/09/01 10:49:42;;;;;;;4.60;3.33;;;42.90;22.00;;;;;;5015011;28;20449;-66
2022/09/01 10:52:11;;;;;;;2.80;2.50;;;42.50;23.20;;;;;;5015031;28;20482;-67
2022/09/01 10:54:55;;;;;;;4.30;3.33;;;42.20;23.20;;;;;;5015123;28;20462;-66
2022/09/01 10:57:38;;;;;;;4.30;3.90;;;41.40;23.50;;;;;;5014890;28;20508;-66
2022/09/01 11:01:00;;;;;;;3.60;3.00;;;40.50;23.80;;;;;;5015086;28;20517;-66
2022/09/01 11:03:53;;;;;;;4.13;3.73;;;39.80;25.30;;;;;;5014621;28;20938;-65
2022/09/01 11:07:00;;;;;;;4.27;3.30;;;38.90;24.90;;;;;;5015042;28;20438;-66
2022/09/01 11:09:32;;;;;;;3.47;3.17;;;37.90;25.40;;;;;;5014827;28;20438;-66
2022/09/01 11:12:34;;;;;;;4.70;3.60;;;36.50;25.90;;;;;;5014889;28;20470;-65
2022/09/01 11:15:08;;;;;;;3.63;3.30;;;35.40;27.70;;;;;;5024074;28;21009;-65
2022/09/01 11:17:38;;;;;;;4.40;4.00;;;34.40;28.70;;;;;;5033949;28;20434;-65
2022/09/01 11:20:08;;;;;;;4.33;3.57;;;33.60;29.60;;;;;;5034377;28;20489;-65
2022/09/01 11:22:39;;;;;;;3.50;3.20;;;32.80;31.20;;;;;;5034480;28;20453;-65
2022/09/01 11:25:32;;;;;;;4.83;4.00;;;32.30;32.60;;;;;;5033625;28;20512;-65
2022/09/01 11:28:36;;;;;;;4.90;3.87;;;32.20;32.60;;;;;;5024962;28;20832;-65
2022/09/01 11:31:17;;;;;;;3.73;3.43;;;32.20;32.10;;;;;;5033984;28;20536;-65
2022/09/01 11:33:53;;;;;;;4.00;3.53;;;32.10;32.00;;;;;;5033914;28;20473;-65
2022/09/01 11:36:28;;;;;;;4.07;3.67;;;31.50;32.30;;;;;;5034003;28;20441;-65
2022/09/01 11:39:06;;;;;;;4.90;4.17;;;31.10;33.60;;;;;;5033361;28;20596;-65
2022/09/01 11:41:50;;;;;;;4.60;3.07;;;31.10;35.20;;;;;;5033335;28;20485;-65
2022/09/01 11:44:24;;;;;;;7.50;3.70;;;31.20;34.60;;;;;;5033678;28;20525;-65
2022/09/01 11:46:53;;;;;;;5.83;4.17;;;31.60;34.30;;;;;;5033457;28;20509;-66
2022/09/01 11:49:31;;;;;;;4.90;3.30;;;31.80;34.00;;;;;;5033589;28;20499;-65
2022/09/01 11:52:00;;;;;;;5.40;3.43;;;31.90;33.00;;;;;;5033627;28;20473;-66
2022/09/01 11:54:28;;;;;;;4.87;3.53;;;31.60;33.60;;;;;;5033623;28;20486;-65
2022/09/01 11:56:58;;;;;;;5.37;4.10;;;31.50;34.80;;;;;;5033503;28;20438;-65
2022/09/01 11:59:36;;;;;;;4.97;3.97;;;31.30;33.40;;;;;;5032743;28;20576;-65
2022/09/01 12:02:04;;;;;;;4.60;3.80;;;31.10;35.40;;;;;;5033588;28;20434;-65
2022/09/01 12:04:35;;;;;;;6.40;4.23;;;31.10;35.50;;;;;;5033404;28;20495;-65
2022/09/01 12:07:05;;;;;;;3.90;3.50;;;31.40;36.30;;;;;;5033430;28;20434;-66
2022/09/01 12:09:38;;;;;;;3.73;3.17;;;31.40;35.20;;;;;;5033518;28;20478;-65
2022/09/01 12:12:26;;;;;;;5.13;4.03;;;31.50;34.10;;;;;;5033544;28;21008;-65
2022/09/01 12:14:56;;;;;;;3.80;2.63;;;31.60;34.80;;;;;;5033388;28;20445;-65
2022/09/01 12:17:23;;;;;;;4.40;3.00;;;31.80;35.80;;;;;;5033279;28;20529;-65
2022/09/01 12:19:50;;;;;;;4.20;3.37;;;32.00;34.20;;;;;;5033110;28;20525;-65
2022/09/01 12:22:23;;;;;;;4.20;3.10;;;32.00;32.50;;;;;;5033211;28;20959;-66
2022/09/01 12:24:52;;;;;;;5.83;3.57;;;31.80;33.30;;;;;;5033022;28;20982;-65
2022/09/01 12:27:22;;;;;;;4.13;3.40;;;31.60;32.50;;;;;;5032904;28;20496;-65
2022/09/01 12:29:50;;;;;;;4.47;3.20;;;31.30;32.80;;;;;;5032937;28;20920;-65
2022/09/01 12:32:18;;;;;;;5.60;3.20;;;30.80;33.10;;;;;;5032937;28;20485;-65
2022/09/01 12:34:58;;;;;;;5.07;3.77;;;30.40;34.20;;;;;;5032877;28;20450;-65
2022/09/01 12:37:27;;;;;;;3.90;3.40;;;30.10;34.60;;;;;;5033150;28;20437;-65
2022/09/01 12:39:56;;;;;;;5.63;3.00;;;29.90;35.00;;;;;;5032829;28;20513;-65
2022/09/01 12:42:31;;;;;;;4.10;3.43;;;29.60;36.20;;;;;;5032765;28;20932;-65
2022/09/01 12:45:01;;;;;;;3.83;3.00;;;29.50;36.20;;;;;;5032898;28;20434;-65
2022/09/01 12:47:48;;;;;;;5.70;3.60;;;29.20;36.10;;;;;;5032774;28;20527;-65
2022/09/01 12:50:37;;;;;;;5.97;4.20;;;29.10;36.10;;;;;;5032999;28;20434;-65
2022/09/01 12:53:20;;;;;;;3.97;3.57;;;28.90;36.80;;;;;;5032972;28;20529;-65
2022/09/01 12:56:14;;;;;;;3.80;3.20;;;28.60;37.30;;;;;;5032870;28;20432;-65
2022/09/01 12:58:47;;;;;;;4.13;3.73;;;28.40;36.30;;;;;;5032730;28;20529;-65
2022/09/01 13:01:26;;;;;;;7.70;4.37;;;28.00;38.40;;;;;;5032704;28;20488;-65
2022/09/01 13:04:14;;;;;;;4.30;3.60;;;27.70;39.20;;;;;;5032548;28;20448;-65